Date,TemperatureHighF,TemperatureAvgF,TemperatureLowF,DewpointHighF,DewpointAvgF,DewpointLowF,HumidityHigh,HumidityAvg,HumidityLow,PressureMaxIn,PressureMinIn,WindSpeedMaxMPH,WindSpeedAvgMPH,GustSpeedMaxMPH,PrecipitationSumIn
2013-1-1,36,30,18,28,20,8,78,65,52,29.95,29.77,24,6,24,0.00
2013-1-2,30,21,12,17,12,6,81,68,52,30.09,29.91,18,4,18,0.00
2013-1-6,42,30,33,29,2,-100,78,55,59,29.97,-32.77,12,-197,12,0.01
2013-1-7,37,33,26,29,25,20,84,73,59,30.33,29.97,15,2,15,0.01
2013-1-8,44,35,26,30,26,20,83,71,54,30.34,30.25,18,4,18,0.00
2013-1-9,40,35,29,35,30,25,88,80,71,30.32,30.03,18,2,18,0.00
2013-1-10,45,40,33,33,25,23,84,56,46,30.49,30.11,35,4,35,0.00
2013-1-11,36,33,27,35,28,23,96,83,70,30.48,30.09,7,1,7,0.22
2013-1-12,42,40,36,42,39,35,98,97,95,30.12,30.05,10,2,10,0.24
2013-1-13,44,42,40,44,42,39,99,98,98,30.09,29.93,12,2,12,0.00
2013-1-14,49,43,34,49,39,25,99,86,67,30.26,29.75,31,4,31,0.04
2013-1-15,37,33,30,26,24,22,79,70,61,30.30,30.17,11,2,11,0.00
2013-1-16,31,30,28,30,28,22,97,92,71,30.18,29.79,9,1,9,0.00
2013-1-17,39,32,24,32,26,11,97,80,57,30.08,29.83,15,2,15,0.13
2013-1-18,26,22,17,12,7,-1,72,54,40,30.39,29.99,24,5,24,0.13
2013-1-19,45,35,23,30,22,12,77,60,47,30.30,29.81,22,6,22,0.01
2013-1-20,49,38,25,32,23,9,75,56,27,29.96,29.57,31,7,31,0.01
2013-1-21,27,23,18,21,13,6,93,66,47,30.02,29.74,22,3,22,0.00
2013-1-22,20,16,9,18,1,-6,92,54,36,30.10,29.73,22,7,22,0.00
2013-1-23,17,10,5,0,-4,-6,74,55,37,30.15,30.07,21,6,21,0.00
2013-1-24,20,10,1,3,-2,-6,75,57,36,30.30,30.09,29,6,29,0.00
2013-1-25,19,14,6,13,4,1,88,66,48,30.34,30.01,12,2,12,0.00
2013-1-26,24,16,9,12,7,3,89,69,45,30.30,29.99,23,4,23,0.00
2013-1-27,32,21,12,12,5,-1,82,53,32,30.46,30.29,11,2,14,0.00
2013-1-28,32,26,18,31,18,-1,96,77,38,30.44,29.93,12,3,12,0.00
2013-1-29,45,36,32,40,35,31,100,94,79,30.09,29.93,12,2,12,0.08
2013-1-30,47,40,36,47,39,36,100,98,97,30.03,29.72,12,2,12,0.09
2013-1-31,58,41,26,57,30,13,99,67,42,29.62,28.90,41,12,41,1.09
2013-2-1,29,25,21,18,10,5,77,54,39,30.12,29.61,27,9,27,0.00
2013-2-2,28,21,15,17,10,6,90,65,40,30.19,30.00,20,5,20,0.00
2013-2-3,29,22,16,18,16,14,100,77,56,30.01,29.73,8,1,8,0.00
2013-2-4,28,23,18,19,11,6,91,62,41,29.90,29.73,24,6,24,0.01
2013-2-5,31,24,19,24,18,12,93,77,62,29.95,29.85,7,1,7,0.00
2013-2-6,37,28,23,27,18,-1,95,68,34,30.30,29.85,23,4,23,0.02
2013-2-7,32,24,17,16,7,2,64,49,37,30.46,30.28,12,2,12,0.00
2013-2-8,31,28,24,28,23,15,94,84,61,30.32,29.66,20,5,20,0.00
2013-2-9,26,22,14,22,13,4,94,71,40,30.29,29.73,38,10,38,0.00
2013-2-10,34,21,7,10,4,-1,72,49,27,30.44,30.27,10,2,10,0.06
2013-2-11,39,34,25,38,31,9,98,90,50,30.27,29.62,12,2,12,0.03
2013-2-12,42,37,34,36,29,23,98,73,57,29.89,29.64,21,4,21,0.03
2013-2-13,42,35,29,29,23,21,88,63,47,29.88,29.65,12,1,12,0.00
2013-2-14,42,35,28,29,24,21,92,66,50,29.92,29.66,13,2,13,0.01
2013-2-15,50,40,33,33,28,25,78,63,46,29.93,29.83,19,4,19,0.00
2013-2-16,35,30,25,30,21,10,92,70,54,29.93,29.71,23,4,23,0.00
2013-2-17,28,21,15,11,5,0,61,50,33,29.88,29.59,36,11,36,0.00
2013-2-18,34,23,12,11,5,2,65,48,30,30.14,29.88,19,5,19,0.00
2013-2-19,42,34,27,36,25,10,96,72,49,30.14,29.59,26,4,26,0.21
2013-2-20,36,28,22,33,15,8,92,60,45,29.88,29.59,29,9,29,0.21
2013-2-21,30,24,20,15,13,11,76,63,52,30.28,29.86,25,7,25,0.00
2013-2-22,35,29,21,26,21,15,81,72,60,30.37,30.23,14,3,14,0.00
2013-2-23,37,34,31,36,32,26,95,90,78,30.23,29.80,16,3,16,0.04
2013-2-24,39,35,30,36,31,23,97,87,72,29.91,29.69,15,3,15,0.06
2013-2-25,42,35,28,30,26,23,85,70,57,30.19,29.91,12,2,12,0.00
2013-2-26,43,37,30,31,27,24,85,70,54,30.25,29.93,20,4,20,0.03
2013-2-27,44,39,33,41,37,29,96,90,84,29.93,29.45,33,6,33,0.17
2013-2-28,45,39,35,40,36,33,100,90,73,29.56,29.49,13,1,13,0.20
2013-3-1,42,36,33,33,30,25,91,77,61,29.72,29.54,19,3,19,0.00
2013-3-2,36,32,26,26,25,22,85,75,64,29.71,29.64,16,4,16,0.00
2013-3-3,33,28,24,27,21,17,89,74,62,29.70,29.63,15,3,15,0.00
2013-3-4,38,30,26,24,21,19,80,68,54,29.85,29.68,20,5,20,0.00
2013-3-5,43,34,28,29,25,21,80,70,54,29.99,29.84,17,3,17,0.00
2013-3-6,42,37,33,34,30,26,85,74,66,29.99,29.89,29,6,29,0.00
2013-3-7,36,33,30,30,29,26,95,86,69,30.06,29.95,20,6,20,0.00
2013-3-8,39,32,28,32,28,25,95,86,66,30.19,29.96,30,8,30,0.05
2013-3-9,51,39,30,26,23,20,76,55,33,30.26,30.18,22,4,22,0.05
2013-3-10,52,41,30,34,29,22,83,63,44,30.32,30.19,14,4,16,0.00
2013-3-11,52,43,34,45,38,31,93,82,63,30.25,30.00,21,5,21,0.00
2013-3-12,53,49,39,52,47,36,97,93,86,30.01,29.60,28,7,28,0.79
2013-3-13,47,39,34,37,29,22,92,69,41,29.81,29.70,17,4,17,0.79
2013-3-14,34,29,24,28,15,9,87,56,44,29.86,29.77,32,9,32,0.00
2013-3-15,37,31,21,32,20,9,83,62,46,29.89,29.65,21,4,21,0.00
2013-3-16,35,31,26,28,22,15,92,68,49,29.86,29.70,21,2,21,0.00
2013-3-17,37,32,26,26,10,8,92,41,32,30.27,29.86,24,4,24,0.00
2013-3-18,35,28,19,26,12,4,94,54,35,30.38,30.03,19,2,19,0.00
2013-3-19,36,32,27,34,30,26,96,94,91,30.03,29.64,14,2,14,0.25
2013-3-20,39,32,25,29,21,16,94,66,40,29.78,29.71,27,5,27,0.10
2013-3-21,37,30,24,22,17,12,84,61,39,29.77,29.57,14,2,14,0.02
2013-3-22,37,30,22,24,19,13,74,63,52,29.79,29.65,22,3,22,0.02
2013-3-23,42,35,30,25,21,18,75,58,41,29.85,29.72,30,8,30,0.00
2013-3-24,43,35,29,26,22,18,72,59,47,29.87,29.68,18,3,18,0.00
2013-3-25,46,38,30,28,25,23,78,61,45,29.69,29.41,23,4,23,0.00
2013-3-26,46,39,34,34,28,24,79,65,46,29.79,29.54,16,2,16,0.00
2013-3-27,50,39,28,30,24,19,77,56,32,29.89,29.79,21,3,21,0.00
2013-3-28,46,41,36,35,31,26,83,68,58,30.04,29.88,16,3,16,0.00
2013-3-29,50,41,35,31,29,28,77,64,44,30.07,29.98,19,3,19,0.00
2013-3-30,52,41,33,33,27,21,83,62,34,30.09,30.03,15,1,15,0.00
2013-3-31,56,45,35,40,29,20,94,56,35,30.06,29.63,26,4,26,0.20
2013-4-1,55,42,32,46,33,12,100,73,35,29.82,29.53,33,7,33,0.21
2013-4-2,39,33,27,19,13,9,63,46,30,29.99,29.82,30,8,30,0.00
2013-4-3,42,34,27,17,15,12,61,46,32,30.23,29.98,27,9,27,0.00
2013-4-4,54,39,27,29,20,14,67,48,26,30.32,29.98,17,4,17,0.00
2013-4-5,58,45,36,29,24,18,66,47,25,29.98,29.66,26,6,26,0.00
2013-4-6,49,38,30,24,12,7,67,37,20,30.23,29.92,27,5,27,0.00
2013-4-7,56,46,36,42,31,13,82,58,31,30.22,29.89,31,8,31,0.00
2013-4-8,66,54,43,44,40,37,88,62,40,30.03,29.91,13,3,13,0.00
2013-4-9,71,62,54,52,46,42,81,58,37,29.91,29.82,20,5,20,0.00
2013-4-10,62,53,47,53,49,42,97,86,63,29.91,29.73,27,2,27,0.29
2013-4-11,52,44,34,51,36,27,97,76,54,30.04,29.75,18,5,18,0.30
2013-4-12,41,38,34,38,35,31,94,89,77,30.04,29.71,23,4,23,0.05
2013-4-13,55,44,36,41,36,34,96,76,50,29.89,29.73,16,2,16,0.07
2013-4-14,50,44,38,38,30,26,92,60,41,30.17,29.87,27,5,27,0.00
2013-4-15,61,47,34,38,32,26,81,56,40,30.32,30.16,15,3,15,0.00
2013-4-16,63,53,42,53,45,31,88,73,59,30.30,30.03,29,6,29,0.01
2013-4-17,63,55,47,54,39,31,95,59,35,30.24,30.05,19,3,19,0.04
2013-4-18,60,52,45,48,38,30,89,60,42,30.28,30.04,24,5,24,0.00
2013-4-19,72,62,51,63,58,48,97,88,73,30.04,29.52,28,7,28,0.51
2013-4-20,60,48,39,59,35,20,96,65,34,30.25,29.58,25,7,25,0.77
2013-4-21,50,40,31,26,22,18,72,48,32,30.57,30.24,23,5,23,0.00
2013-4-22,56,46,36,35,28,19,80,53,32,30.63,30.44,23,6,23,0.00
2013-4-23,50,42,33,41,35,28,86,78,71,30.47,30.07,14,3,14,0.00
2013-4-24,72,53,36,51,44,34,100,74,46,30.08,29.71,21,5,21,0.00
2013-4-25,61,52,43,52,33,27,86,51,29,30.19,29.73,25,6,25,0.00
2013-4-26,60,50,40,40,32,27,70,50,36,30.37,30.19,17,4,17,0.00
2013-4-27,66,53,39,35,30,18,68,44,20,30.38,30.21,20,2,20,0.00
2013-4-28,70,57,46,45,36,30,62,46,31,30.24,30.09,22,5,22,0.00
2013-4-29,56,54,51,47,43,31,78,67,43,30.17,30.13,16,4,16,0.00
2013-4-30,70,58,49,45,38,28,77,51,26,30.26,30.15,15,3,15,0.00
2013-5-1,72,59,46,43,35,28,69,42,23,30.40,30.26,17,3,17,0.00
2013-5-2,78,62,48,48,44,41,82,54,30,30.40,30.20,21,3,21,0.00
2013-5-3,68,59,49,44,38,31,66,46,29,30.39,30.24,15,4,15,0.00
2013-5-4,73,58,45,49,44,38,89,62,31,30.30,30.11,18,4,18,0.00
2013-5-5,72,54,39,45,40,32,95,65,25,30.23,30.09,16,3,16,0.00
2013-5-6,72,56,40,53,46,38,93,72,41,30.20,30.04,14,2,14,0.00
2013-5-7,76,64,49,56,52,47,93,69,38,30.10,29.98,17,3,17,0.00
2013-5-8,66,61,56,63,58,54,93,89,80,30.06,29.91,19,4,19,0.09
2013-5-9,63,57,51,58,55,50,97,92,80,29.94,29.82,8,1,8,0.20
2013-5-10,75,64,52,60,56,51,98,77,50,29.93,29.80,12,2,12,0.01
2013-5-11,68,63,59,64,61,56,97,93,78,29.81,29.60,16,3,16,0.14
2013-5-12,62,55,45,60,44,27,98,69,29,29.82,29.58,23,3,23,0.14
2013-5-13,51,45,39,34,31,27,76,59,45,30.04,29.81,16,3,16,0.00
2013-5-14,59,47,32,36,31,25,92,56,29,30.07,29.95,16,1,16,0.00
2013-5-15,66,53,41,54,43,29,90,68,55,30.00,29.59,19,2,19,0.04
2013-5-16,80,67,53,55,47,38,95,55,23,29.77,29.62,21,3,21,0.04
2013-5-17,68,60,51,45,42,39,66,52,40,30.14,29.76,20,3,20,0.00
2013-5-18,68,58,48,50,46,39,87,65,44,30.23,30.14,16,2,20,0.00
2013-5-19,57,55,53,56,53,49,97,94,86,30.26,30.10,12,2,12,0.04
2013-5-20,80,66,55,68,61,54,98,84,61,30.10,29.87,10,2,10,0.04
2013-5-21,87,75,64,73,68,62,97,79,56,29.90,29.70,18,3,18,0.00
2013-5-22,79,70,61,72,66,59,95,88,76,29.84,29.73,18,3,18,0.03
2013-5-23,72,68,65,70,66,62,98,94,86,29.79,29.66,13,3,13,0.59
2013-5-24,65,53,42,64,52,40,98,95,86,29.90,29.58,19,3,19,0.19
2013-5-25,43,17,42,41,-44,-100,95,37,90,29.89,29.82,21,-598,21,0.04
2013-5-26,-200,0,200,-100,-100,-100,0,0,100,30.10,29.82,0,-999,0,0.00
2013-5-27,-200,0,200,-100,-100,-100,0,0,100,30.16,30.03,0,-999,0,0.00
2013-5-28,68,51,48,56,33,-100,97,69,50,30.16,30.07,6,-112,10,0.07
2013-5-29,66,25,56,64,-33,-100,98,41,90,30.07,29.91,7,-576,10,0.01
2013-5-30,90,38,74,73,-23,-100,84,29,50,30.05,29.94,7,-543,9,0.03
2013-5-31,90,79,67,72,67,64,93,70,44,30.04,29.88,7,2,14,0.00
2013-6-1,89,78,68,73,67,61,84,70,50,29.92,29.78,16,3,16,0.00
2013-6-2,85,77,70,73,68,64,89,75,61,29.80,29.64,21,3,21,0.00
2013-6-3,76,68,55,67,62,46,97,81,65,29.83,29.69,10,1,10,0.24
2013-6-4,73,61,49,50,45,39,78,57,36,30.05,29.83,15,2,15,0.00
2013-6-5,73,62,50,52,46,40,77,57,38,30.15,30.02,11,1,11,0.00
2013-6-6,69,60,52,56,52,46,95,76,60,30.09,29.96,16,3,16,0.10
2013-6-7,59,57,55,58,56,53,98,95,93,29.98,29.64,12,2,12,1.28
2013-6-8,74,63,54,66,58,53,97,85,69,29.99,29.60,8,2,12,0.29
2013-6-9,79,67,56,61,58,55,97,75,49,30.10,29.99,4,1,12,0.00
2013-6-10,69,63,59,64,59,55,96,87,73,30.10,29.77,17,3,17,1.08
2013-6-11,75,45,60,70,13,-100,98,65,74,29.77,29.51,21,-302,21,0.26
2013-6-12,-200,0,200,-100,-100,-100,0,0,100,29.79,29.59,0,-999,0,0.00
2013-6-13,-200,0,200,-100,-100,-100,0,0,100,29.77,29.53,0,-999,0,0.00
2013-6-14,73,56,50,61,45,-100,97,79,54,29.81,29.55,20,-60,20,0.24
2013-6-15,78,66,54,59,53,47,96,66,37,29.93,29.81,15,2,15,0.00
2013-6-16,74,65,53,64,57,49,90,75,62,29.91,29.66,12,3,20,0.00
2013-6-17,84,70,61,67,62,56,96,76,42,29.85,29.73,34,2,34,0.00
2013-6-18,76,64,58,69,60,53,94,86,74,29.86,29.77,17,2,17,0.04
2013-6-19,72,63,54,54,50,44,90,66,41,30.10,29.84,18,2,18,0.00
2013-6-20,78,66,49,61,53,46,93,67,45,30.20,30.10,13,1,13,0.00
2013-6-21,80,70,59,68,60,55,85,72,58,30.20,30.12,10,1,10,0.00
2013-6-22,82,72,62,67,61,56,83,70,54,30.17,30.02,17,2,17,0.00
2013-6-23,88,76,65,73,66,58,87,73,46,30.09,29.94,19,4,19,0.00
2013-6-24,90,76,67,76,70,63,96,83,60,29.97,29.85,22,2,22,0.55
2013-6-25,87,75,66,76,70,64,97,85,57,29.92,29.70,18,2,18,0.07
2013-6-26,79,74,69,73,70,67,96,86,74,29.75,29.68,10,1,10,0.00
2013-6-27,83,73,65,74,69,64,98,89,64,29.75,29.44,21,2,21,0.46
2013-6-28,83,74,67,73,69,66,97,84,66,29.45,29.37,20,3,20,0.67
2013-6-29,82,72,65,70,66,63,99,83,53,29.62,29.41,18,2,18,0.01
2013-6-30,81,71,66,75,68,65,99,92,77,29.85,29.61,26,1,26,3.44
2013-7-1,74,71,68,73,70,67,99,97,94,29.96,29.83,11,1,11,1.24
2013-7-2,72,8,71,71,-82,-100,97,10,97,30.08,29.96,12,-894,12,0.04
2013-7-3,78,6,72,74,-86,-100,95,8,86,30.16,30.07,7,-916,7,0.01
2013-7-4,87,51,77,76,7,-100,90,46,64,30.16,30.04,17,-383,17,0.01
2013-7-5,89,81,73,78,73,70,93,78,61,30.11,29.98,5,2,16,0.00
2013-7-6,89,81,74,77,73,72,93,78,59,30.03,29.92,4,1,11,0.00
2013-7-7,90,80,72,79,74,67,96,81,62,29.97,29.83,6,1,12,0.00
2013-7-8,86,75,67,74,69,65,97,82,64,29.96,29.85,9,1,14,0.41
2013-7-9,86,74,66,76,70,64,97,87,64,30.00,29.90,6,0,10,0.00
2013-7-10,82,76,72,77,72,69,96,89,81,29.93,29.70,5,1,9,0.05
2013-7-11,82,75,69,73,69,62,94,83,68,29.87,29.69,4,0,8,0.01
2013-7-12,80,72,65,70,64,59,85,76,63,30.07,29.86,9,2,9,0.00
2013-7-13,77,71,63,74,67,59,97,88,71,30.22,30.07,8,0,8,0.10
2013-7-14,89,79,71,80,74,70,98,85,66,30.26,30.14,7,0,7,0.00
2013-7-15,90,82,73,78,73,68,96,78,58,30.16,30.06,8,0,8,0.00
2013-7-16,90,81,70,76,70,66,90,71,50,30.14,30.06,14,1,14,0.00
2013-7-17,94,82,70,79,73,68,95,74,53,30.13,29.95,7,0,7,0.00
2013-7-18,95,83,74,80,74,70,94,77,53,29.97,29.86,19,0,19,0.42
2013-7-19,93,83,73,81,76,72,96,79,57,29.88,29.67,17,1,17,0.01
2013-7-20,88,80,72,78,72,65,89,78,61,29.77,29.61,13,1,13,0.00
2013-7-21,87,76,67,71,65,60,86,69,49,29.89,29.76,7,0,7,0.00
2013-7-22,83,74,66,74,69,63,96,84,65,29.91,29.73,10,1,10,0.04
2013-7-23,86,75,71,76,72,70,98,91,66,29.73,29.48,14,0,14,0.92
2013-7-24,77,70,58,72,64,52,99,84,64,29.91,29.53,13,1,13,0.01
2013-7-25,71,62,55,63,56,49,83,78,69,30.01,29.90,14,1,14,0.00
2013-7-26,79,68,60,68,60,55,86,77,62,29.99,29.92,11,1,11,0.00
2013-7-27,82,71,61,70,63,59,95,77,53,29.98,29.87,12,1,12,0.00
2013-7-28,76,68,64,72,65,62,98,92,80,29.92,29.85,10,1,10,0.31
2013-7-29,81,72,65,70,65,57,98,79,53,30.03,29.89,13,0,13,0.01
2013-7-30,79,69,57,66,60,55,94,76,55,30.09,30.02,9,0,9,0.00
2013-7-31,80,70,59,67,62,57,95,77,54,30.09,29.95,6,0,6,0.00
2013-8-1,75,66,63,67,63,60,97,90,72,29.96,29.77,14,1,14,0.29
2013-8-2,81,71,63,70,64,59,99,82,57,29.83,29.73,10,0,10,0.01
2013-8-3,80,69,62,70,61,53,92,77,57,29.81,29.74,9,1,9,0.00
2013-8-4,77,66,55,65,58,52,94,76,53,29.90,29.77,15,1,15,0.11
2013-8-5,76,65,53,57,52,49,92,65,40,29.99,29.89,12,1,12,0.00
2013-8-6,80,67,53,62,56,49,94,69,44,30.06,29.98,9,0,9,0.00
2013-8-7,66,62,60,62,58,57,92,87,79,30.08,30.05,6,0,6,0.00
2013-8-27,81,73,67,72,69,66,98,88,71,29.84,29.75,3,0,0,0.59
2013-8-28,86,73,63,76,68,62,98,87,64,29.84,29.76,2,0,0,0.00
2013-8-29,78,71,67,71,66,64,95,87,73,29.96,29.83,3,1,0,0.00
2013-8-30,82,73,65,72,68,64,96,85,65,29.95,29.76,1,0,0,0.00
2013-8-31,81,74,69,75,71,67,95,91,83,29.76,29.69,3,0,0,0.06
2013-9-1,80,75,71,76,72,70,98,91,83,29.78,29.72,3,0,1,0.07
2013-9-2,80,72,65,75,69,63,97,93,78,29.74,29.62,8,0,13,1.40
2013-9-3,74,66,60,69,63,57,98,92,81,29.81,29.65,3,0,3,0.04
2013-9-4,79,67,55,66,59,54,97,78,53,29.91,29.80,4,0,4,0.00
2013-9-5,70,63,52,61,54,44,91,72,49,30.10,29.83,10,1,10,0.00
2013-9-6,68,57,47,54,46,42,85,68,45,30.20,30.06,8,0,8,0.00
2013-9-7,75,62,48,61,53,44,90,74,56,30.06,29.81,7,0,7,0.00
2013-9-8,74,64,54,66,55,44,90,73,46,30.04,29.75,18,1,18,0.00
2013-9-9,69,58,45,56,50,42,92,73,54,30.19,30.03,11,1,11,0.00
2013-9-10,79,70,61,74,67,56,98,91,82,30.10,29.96,13,1,13,0.18
2013-9-11,92,79,69,81,74,68,97,85,64,30.02,29.87,18,1,18,0.02
2013-9-12,82,72,67,77,69,66,97,91,77,29.89,29.59,12,1,12,0.32
2013-9-13,72,64,53,66,60,48,99,89,73,29.78,29.55,11,0,11,0.03
2013-9-14,63,55,48,54,49,45,94,80,65,30.06,29.78,7,0,7,0.00
2013-9-15,68,55,42,54,48,41,97,79,54,30.15,30.01,7,0,7,0.00
2013-9-16,66,57,47,58,52,41,94,83,68,30.22,29.98,11,1,11,0.01
2013-9-17,62,51,41,50,43,39,93,75,56,30.40,30.22,10,1,10,0.00
2013-9-18,70,56,41,55,47,40,97,77,47,30.29,30.11,6,0,6,0.00
2013-9-19,74,61,49,60,51,46,90,72,44,30.12,30.00,7,0,7,0.00
2013-9-20,77,64,52,63,55,50,91,74,46,30.03,29.90,9,1,9,0.00
2013-9-21,73,64,56,66,60,54,97,88,74,29.93,29.56,16,3,16,0.23
2013-9-22,66,59,51,65,53,43,98,81,63,29.85,29.56,14,0,14,0.33
2013-9-23,61,52,43,48,43,39,87,71,53,30.00,29.84,11,1,11,0.00
2013-9-24,69,54,41,53,45,38,94,72,48,30.00,29.82,8,0,8,0.00
2013-9-25,70,57,42,57,49,40,94,75,54,29.91,29.82,6,0,6,0.00
2013-9-26,66,58,50,55,51,48,94,79,60,30.06,29.90,11,1,11,0.00
2013-9-27,65,56,48,57,51,46,93,82,69,30.22,30.06,9,0,9,0.00
2013-9-28,72,59,48,59,53,47,97,81,56,30.29,30.17,7,0,7,0.00
2013-9-29,74,60,48,60,53,47,97,79,50,30.18,30.00,7,0,7,0.00
2013-9-30,73,60,49,59,53,47,94,78,52,30.03,29.90,5,0,5,0.00
2013-10-1,77,63,50,63,56,48,96,80,56,29.95,29.83,4,0,4,0.00
2013-10-2,80,66,54,67,59,53,97,78,59,29.95,29.83,6,0,6,0.00
2013-10-3,76,65,52,60,54,49,91,70,44,30.06,29.95,5,0,5,0.00
2013-10-4,76,65,58,68,60,54,96,85,73,30.00,29.91,7,0,7,0.01
2013-10-5,70,62,59,66,60,58,98,95,85,30.04,29.97,6,0,6,0.14
2013-10-6,61,59,58,61,58,57,99,96,94,30.05,29.98,14,2,14,1.46
2013-10-7,73,64,54,69,62,51,98,94,84,29.98,29.63,23,4,23,1.02
2013-10-8,64,56,48,51,45,43,91,69,49,30.30,29.89,15,1,15,0.00
2013-10-9,64,54,45,50,44,39,88,69,46,30.39,30.27,12,1,12,0.00
2013-10-10,56,51,44,49,45,39,89,79,71,30.28,30.08,8,0,8,0.00
2013-10-11,70,59,50,60,49,41,79,69,55,30.09,30.00,8,0,8,0.00
2013-10-12,72,60,50,57,50,43,84,72,53,30.27,30.07,16,2,16,0.00
2013-10-13,67,57,49,53,49,46,93,78,58,30.34,30.26,7,1,9,0.00
2013-10-14,67,56,45,53,48,44,95,78,54,30.31,30.17,9,0,9,0.00
2013-10-15,70,60,51,59,52,40,96,76,55,30.21,30.06,9,0,9,0.00
2013-10-16,61,56,51,56,50,44,91,82,68,30.07,29.84,7,0,7,0.00
2013-10-17,74,65,58,61,58,54,96,80,52,29.84,29.57,14,2,14,0.00
2013-10-18,66,59,51,61,48,40,96,69,43,29.89,29.55,14,2,14,0.06
2013-10-19,64,53,44,51,44,40,94,73,43,29.91,29.67,16,1,16,0.04
2013-10-20,61,52,44,50,41,36,95,67,41,29.99,29.67,13,1,13,0.01
2013-10-21,65,52,41,46,40,36,85,65,41,30.07,29.90,14,2,14,0.00
2013-10-22,61,51,42,50,45,37,92,80,63,29.90,29.67,9,1,9,0.00
2013-10-23,54,43,36,41,36,31,94,77,46,29.77,29.56,10,0,10,0.00
2013-10-24,52,43,34,37,31,27,89,65,42,29.91,29.68,18,3,18,0.00
2013-10-25,50,42,35,35,32,29,81,67,53,30.14,29.90,13,1,13,0.00
2013-10-26,53,44,34,36,32,29,91,65,42,30.14,29.81,15,3,23,0.00
2013-10-27,54,47,40,37,32,29,73,56,41,30.04,29.78,16,1,16,0.00
2013-10-28,59,45,34,38,33,28,87,65,44,30.29,30.04,14,2,14,0.00
2013-10-29,50,41,35,30,27,25,68,58,45,30.39,30.29,5,0,8,0.00
2013-10-30,56,44,34,46,37,25,94,75,64,30.30,30.13,7,0,7,0.00
2013-10-31,60,51,41,59,50,40,98,96,93,30.19,29.71,14,1,14,0.35
2013-11-1,70,63,54,62,54,43,97,76,46,29.71,29.40,30,6,30,0.20
2013-11-2,64,52,45,48,44,41,87,75,50,29.71,29.55,16,1,16,0.00
2013-11-3,46,38,30,42,29,18,86,71,54,30.42,29.71,20,4,20,0.00
2013-11-4,44,34,26,24,20,18,73,58,40,30.63,30.42,12,2,12,0.00
2013-11-5,52,42,31,39,31,19,82,65,56,30.63,30.43,14,2,14,0.00
2013-11-6,56,50,42,48,44,39,90,80,66,30.44,29.98,20,4,20,0.00
2013-11-7,57,50,38,56,46,31,96,88,75,29.98,29.68,15,3,15,0.18
2013-11-8,44,39,34,32,30,27,86,70,55,30.12,29.84,25,5,25,0.00
2013-11-9,46,40,34,32,29,26,78,65,54,30.20,29.92,12,2,12,0.00
2013-11-10,49,45,41,40,34,30,87,67,54,29.94,29.75,31,4,31,0.02
2013-11-11,48,45,38,33,31,29,70,58,49,30.10,29.89,21,4,21,0.00
2013-11-12,47,33,27,37,23,15,88,67,53,30.22,29.88,18,4,18,0.02
2013-11-13,37,29,21,19,16,13,77,60,39,30.31,30.18,15,3,15,0.01
2013-11-14,54,40,28,23,19,16,71,47,24,30.18,30.05,14,5,14,0.00
2013-11-15,59,46,36,25,22,17,49,38,23,30.16,30.07,13,3,13,0.00
2013-11-16,59,48,40,41,35,23,90,60,40,30.27,30.15,10,1,10,0.01
2013-11-17,58,52,43,57,50,40,98,95,89,30.22,29.69,17,2,17,0.04
2013-11-18,61,58,52,59,45,34,97,66,40,29.69,29.47,25,8,25,0.17
2013-11-19,46,38,29,33,25,21,71,59,51,30.32,29.69,16,7,0,0.00
2013-11-20,39,31,24,20,18,17,73,59,43,30.58,30.33,8,3,0,0.00
2013-11-21,28,27,26,18,17,17,69,67,65,30.59,30.57,1,0,0,0.00
2013-11-24,22,22,22,9,9,8,59,57,55,30.26,30.25,9,6,10,0.00
2013-11-25,32,28,14,16,14,7,77,57,47,30.40,30.25,16,4,16,0.00
2013-11-26,38,32,28,36,25,14,97,77,50,30.27,29.82,14,2,14,0.49
2013-11-27,54,44,32,53,42,23,98,94,68,29.82,29.30,28,5,28,0.95
2013-11-28,32,27,24,23,15,11,72,59,48,30.42,29.60,31,8,31,0.00
2013-11-29,32,26,22,21,17,12,73,66,58,30.71,30.42,9,2,11,0.00
2013-11-30,32,25,17,23,14,11,79,64,43,30.73,30.35,9,1,9,0.01
2013-12-1,41,35,30,32,28,23,88,76,65,30.35,29.97,4,0,4,0.00
2013-12-2,42,36,32,37,32,29,95,87,79,29.97,29.84,4,0,4,0.02
2013-12-3,40,33,27,39,31,26,97,94,85,29.97,29.84,3,0,3,0.00
2013-12-4,45,36,28,36,32,26,96,84,67,30.11,29.97,2,0,5,0.01
2013-12-5,53,49,42,52,47,36,98,94,78,30.10,29.88,8,2,11,0.15
2013-12-6,53,41,32,53,39,30,98,91,77,30.12,29.82,17,1,17,0.38
2013-12-7,37,32,26,31,25,17,94,77,59,30.47,30.07,14,1,14,0.08
2013-12-8,29,26,22,23,20,16,88,77,69,30.54,30.39,5,0,5,0.00
2013-12-9,32,30,25,31,28,23,97,95,88,30.39,29.89,6,0,6,0.00
2013-12-10,32,29,22,31,28,19,97,96,89,30.02,29.79,7,0,7,0.01
2013-12-11,27,23,19,21,18,16,88,81,73,30.20,30.02,11,1,11,0.00
2013-12-12,24,19,16,19,12,7,87,72,56,30.28,30.06,11,1,11,0.00
2013-12-13,30,22,16,19,13,7,78,68,59,30.32,30.00,21,3,21,0.00
2013-12-14,20,15,12,14,11,8,92,85,68,30.48,29.92,10,1,10,0.00
2013-12-15,30,25,16,28,23,14,95,89,77,29.92,29.51,15,1,15,0.00
2013-12-16,28,23,15,23,12,6,84,62,49,30.17,29.73,22,3,22,0.00
2013-12-17,19,14,9,17,11,5,92,88,75,30.19,29.92,5,0,5,0.00
2013-12-18,32,22,11,24,18,9,92,83,73,30.08,29.91,11,1,11,0.05
2013-12-19,42,33,26,27,24,20,79,68,53,30.11,29.93,18,2,18,0.14
2013-12-20,49,42,35,33,30,27,77,64,51,30.06,29.88,14,2,14,0.10
2013-12-21,57,49,44,47,40,32,93,72,61,29.92,29.80,16,4,16,0.01
2013-12-22,65,59,49,61,56,47,97,88,78,29.87,29.65,25,6,25,0.01
2013-12-23,59,45,34,55,43,28,97,93,79,30.10,29.84,15,2,15,0.40
2013-12-24,34,29,20,28,22,8,92,75,58,30.27,30.05,24,3,24,0.00
2013-12-25,23,18,14,9,7,5,71,62,52,30.47,30.27,17,2,17,0.00
2013-12-28,41,40,39,29,29,28,66,63,62,30.03,29.99,8,2,8,0.00
2013-12-29,43,39,35,37,32,28,96,78,60,30.00,29.45,17,2,17,0.69
2013-12-30,38,29,14,35,23,8,97,80,61,30.17,29.60,16,3,16,0.01
2013-12-31,25,19,11,21,13,8,90,79,59,30.20,29.99,14,3,14,0.00
2014-1-1,28,22,18,18,13,7,90,68,52,30.34,30.19,18,3,18,0.00
2014-1-2,20,10,1,18,7,-2,90,87,85,30.27,29.75,18,4,18,0.00